createdAt,value
2023-12-20T00:00:47.345Z,0.00
2023-12-20T00:01:47.398Z,0.00
2023-12-20T00:02:47.269Z,0.00
2023-12-20T00:03:47.303Z,0.00
2023-12-20T00:04:47.466Z,0.00
2023-12-20T00:05:47.212Z,0.00
2023-12-20T00:06:47.419Z,0.00
2023-12-20T00:07:47.738Z,0.00
2023-12-20T00:08:47.293Z,0.00
2023-12-20T00:09:47.264Z,0.00
2023-12-20T00:10:47.281Z,0.00
2023-12-20T00:11:47.430Z,0.00
2023-12-20T00:12:47.276Z,0.00
2023-12-20T00:13:49.989Z,0.00
2023-12-20T00:14:47.132Z,0.00
2023-12-20T00:15:47.273Z,0.00
2023-12-20T00:16:47.307Z,0.00
2023-12-20T00:17:47.441Z,0.00
2023-12-20T00:18:47.464Z,0.00
2023-12-20T00:19:47.176Z,0.00
2023-12-20T00:20:47.060Z,0.00
2023-12-20T00:21:47.081Z,0.00
2023-12-20T00:22:47.113Z,0.00
2023-12-20T00:23:47.044Z,0.00
2023-12-20T00:24:47.132Z,0.00
2023-12-20T00:25:46.992Z,0.00
2023-12-20T00:26:47.008Z,0.00
2023-12-20T00:27:47.408Z,0.00
2023-12-20T00:28:46.955Z,0.00
2023-12-20T00:29:46.937Z,0.00
2023-12-20T00:30:47.110Z,0.00
2023-12-20T00:31:47.002Z,0.00
2023-12-20T00:32:46.990Z,0.00
2023-12-20T00:33:47.046Z,0.00
2023-12-20T00:34:47.033Z,0.00
2023-12-20T00:35:46.903Z,0.00
2023-12-20T00:36:46.944Z,0.00
2023-12-20T00:37:47.105Z,0.00
2023-12-20T00:38:46.847Z,0.00
2023-12-20T00:39:46.992Z,0.00
2023-12-20T00:40:46.874Z,0.00
2023-12-20T00:41:46.841Z,0.00
2023-12-20T00:42:46.827Z,0.00
2023-12-20T00:43:46.818Z,0.00
2023-12-20T00:44:46.790Z,0.00
2023-12-20T00:45:46.803Z,0.00
2023-12-20T00:46:46.763Z,0.00
2023-12-20T00:47:47.261Z,0.00
2023-12-20T00:48:46.838Z,0.00
2023-12-20T00:49:46.811Z,0.00
2023-12-20T00:50:46.748Z,0.00
2023-12-20T00:51:46.754Z,0.00
2023-12-20T00:52:46.730Z,0.00
2023-12-20T00:53:46.700Z,0.00
2023-12-20T00:54:46.864Z,0.00
2023-12-20T00:55:46.959Z,0.00
2023-12-20T00:56:46.699Z,0.00
2023-12-20T00:57:47.228Z,0.00
2023-12-20T00:58:46.680Z,0.00
2023-12-20T00:59:46.826Z,0.00
2023-12-20T01:00:46.721Z,0.00
2023-12-20T01:01:46.778Z,0.00
2023-12-20T01:02:46.615Z,0.00
2023-12-20T01:03:46.645Z,0.00
2023-12-20T01:04:46.612Z,0.00
2023-12-20T01:05:46.605Z,0.00
2023-12-20T01:06:46.649Z,0.00
2023-12-20T01:07:46.832Z,0.00
2023-12-20T01:08:46.744Z,0.00
2023-12-20T01:10:01.271Z,0.00
2023-12-20T01:10:46.507Z,0.00
2023-12-20T01:11:46.517Z,0.00
2023-12-20T01:12:46.565Z,0.00
2023-12-20T01:13:46.478Z,0.00
2023-12-20T01:14:46.451Z,0.00
2023-12-20T01:15:46.501Z,0.00
2023-12-20T01:16:46.448Z,0.00
2023-12-20T01:17:46.693Z,0.00
2023-12-20T01:18:46.484Z,0.00
2023-12-20T01:19:46.501Z,0.00
2023-12-20T01:20:46.410Z,0.00
2023-12-20T01:21:46.437Z,0.00
2023-12-20T01:22:46.368Z,0.00
2023-12-20T01:23:46.376Z,0.00
2023-12-20T01:24:46.385Z,0.00
2023-12-20T01:25:46.343Z,0.00
2023-12-20T01:26:46.371Z,0.00
2023-12-20T01:27:46.667Z,0.00
2023-12-20T01:28:46.352Z,0.00
2023-12-20T01:29:46.339Z,0.00
2023-12-20T01:30:46.394Z,0.00
2023-12-20T01:31:46.454Z,0.00
2023-12-20T01:32:46.332Z,0.00
2023-12-20T01:33:46.621Z,0.00
2023-12-20T01:34:46.354Z,0.00
2023-12-20T01:35:46.240Z,0.00
2023-12-20T01:36:46.262Z,0.00
2023-12-20T01:37:46.909Z,0.00
2023-12-20T01:38:46.201Z,0.00
2023-12-20T01:39:46.241Z,0.00
2023-12-20T01:40:46.194Z,0.00
2023-12-20T01:41:46.206Z,0.00
2023-12-20T01:42:46.155Z,0.00
2023-12-20T01:43:51.279Z,0.00
2023-12-20T01:44:47.183Z,0.00
2023-12-20T01:45:46.146Z,0.00
2023-12-20T01:46:46.123Z,0.00
2023-12-20T01:47:46.385Z,0.00
2023-12-20T01:48:46.211Z,0.00
2023-12-20T01:49:46.130Z,0.00
2023-12-20T01:50:46.119Z,0.00
2023-12-20T01:51:46.091Z,0.00
2023-12-20T01:52:46.045Z,0.00
2023-12-20T01:53:46.116Z,0.00
2023-12-20T01:54:46.048Z,0.00
2023-12-20T01:55:46.054Z,0.00
2023-12-20T01:56:46.039Z,0.00
2023-12-20T01:57:46.518Z,0.00
2023-12-20T01:58:46.039Z,0.00
2023-12-20T01:59:45.994Z,0.00
2023-12-20T02:00:46.052Z,0.00
2023-12-20T02:01:46.043Z,0.00
2023-12-20T02:02:45.951Z,0.00
2023-12-20T02:03:46.002Z,0.00
2023-12-20T02:04:46.012Z,0.00
2023-12-20T02:05:45.902Z,0.00
2023-12-20T02:06:45.951Z,0.00
2023-12-20T02:07:46.176Z,0.00
2023-12-20T02:08:45.904Z,0.00
2023-12-20T02:09:45.873Z,0.00
2023-12-20T02:10:45.872Z,0.00
2023-12-20T02:11:45.864Z,0.00
2023-12-20T02:12:45.960Z,0.00
2023-12-20T02:13:45.800Z,0.00
2023-12-20T02:14:45.844Z,0.00
2023-12-20T02:15:45.800Z,0.00
2023-12-20T02:16:45.788Z,0.00
2023-12-20T02:17:46.060Z,0.00
2023-12-20T02:18:45.947Z,0.00
2023-12-20T02:19:45.829Z,0.00
2023-12-20T02:20:45.860Z,0.00
2023-12-20T02:21:45.817Z,0.00
2023-12-20T02:22:45.701Z,0.00
2023-12-20T02:23:45.745Z,0.00
2023-12-20T02:24:45.785Z,0.00
2023-12-20T02:25:45.925Z,0.00
2023-12-20T02:26:47.250Z,0.00
2023-12-20T02:27:46.416Z,0.00
2023-12-20T02:28:45.651Z,0.00
2023-12-20T02:29:45.664Z,0.00
2023-12-20T02:30:45.687Z,0.00
2023-12-20T02:31:46.181Z,0.00
2023-12-20T02:32:45.686Z,0.00
2023-12-20T02:33:45.632Z,0.00
2023-12-20T02:34:45.694Z,0.00
2023-12-20T02:35:45.576Z,0.00
2023-12-20T02:36:45.577Z,0.00
2023-12-20T02:37:45.849Z,0.00
2023-12-20T02:38:45.574Z,0.00
2023-12-20T02:39:45.592Z,0.00
2023-12-20T02:40:49.600Z,0.00
2023-12-20T02:41:45.568Z,0.00
2023-12-20T02:42:45.524Z,0.00
2023-12-20T02:43:45.505Z,0.00
2023-12-20T02:44:45.592Z,0.00
2023-12-20T02:45:45.535Z,0.00
2023-12-20T02:46:45.479Z,0.00
2023-12-20T02:47:45.653Z,0.00
2023-12-20T02:48:45.546Z,0.00
2023-12-20T02:49:45.575Z,0.00
2023-12-20T02:50:45.404Z,0.00
2023-12-20T02:51:45.552Z,0.00
2023-12-20T02:52:45.402Z,0.00
2023-12-20T02:53:45.391Z,0.00
2023-12-20T02:54:45.409Z,0.00
2023-12-20T02:55:45.871Z,0.00
2023-12-20T02:56:45.359Z,0.00
2023-12-20T02:57:45.580Z,0.00
2023-12-20T02:58:45.347Z,0.00
2023-12-20T02:59:45.347Z,0.00
2023-12-20T03:00:45.425Z,0.00
2023-12-20T03:01:45.434Z,0.00
2023-12-20T03:02:45.289Z,0.00
2023-12-20T03:03:45.312Z,0.00
2023-12-20T03:04:45.363Z,0.00
2023-12-20T03:05:45.296Z,0.00
2023-12-20T03:06:45.246Z,0.00
2023-12-20T03:07:45.777Z,0.00
2023-12-20T03:08:45.239Z,0.00
2023-12-20T03:09:59.737Z,0.00
2023-12-20T03:10:46.337Z,0.00
2023-12-20T03:11:45.185Z,0.00
2023-12-20T03:12:45.211Z,0.00
2023-12-20T03:13:45.167Z,0.00
2023-12-20T03:14:45.179Z,0.00
2023-12-20T03:15:45.168Z,0.00
2023-12-20T03:16:45.115Z,0.00
2023-12-20T03:17:45.878Z,0.00
2023-12-20T03:18:45.123Z,0.00
2023-12-20T03:19:45.168Z,0.00
2023-12-20T03:20:45.111Z,0.00
2023-12-20T03:21:45.106Z,0.00
2023-12-20T03:22:45.116Z,0.00
2023-12-20T03:23:45.067Z,0.00
2023-12-20T03:24:45.048Z,0.00
2023-12-20T03:25:45.114Z,0.00
2023-12-20T03:26:45.025Z,0.00
2023-12-20T03:27:45.318Z,0.00
2023-12-20T03:28:45.040Z,0.00
2023-12-20T03:29:45.017Z,0.00
2023-12-20T03:30:45.073Z,0.00
2023-12-20T03:31:45.034Z,0.00
2023-12-20T03:32:44.970Z,0.00
2023-12-20T03:33:45.030Z,0.00
2023-12-20T03:34:45.042Z,0.00
2023-12-20T03:35:44.993Z,0.00
2023-12-20T03:36:44.948Z,0.00
2023-12-20T03:37:45.106Z,0.00
2023-12-20T03:38:44.943Z,0.00
2023-12-20T03:39:44.887Z,0.00
2023-12-20T03:40:44.859Z,0.00
2023-12-20T03:41:44.868Z,0.00
2023-12-20T03:42:44.937Z,0.00
2023-12-20T03:43:44.823Z,0.00
2023-12-20T03:44:44.819Z,0.00
2023-12-20T03:45:45.036Z,0.00
2023-12-20T03:46:44.816Z,0.00
2023-12-20T03:47:45.222Z,0.00
2023-12-20T03:48:44.814Z,0.00
2023-12-20T03:49:44.822Z,0.00
2023-12-20T03:50:44.813Z,0.00
2023-12-20T03:51:44.811Z,0.00
2023-12-20T03:52:44.768Z,0.00
2023-12-20T03:53:44.727Z,0.00
2023-12-20T03:54:44.784Z,0.00
2023-12-20T03:55:44.782Z,0.00
2023-12-20T03:56:44.705Z,0.00
2023-12-20T03:57:45.002Z,0.00
2023-12-20T03:58:44.690Z,0.00
2023-12-20T03:59:44.687Z,0.00
2023-12-20T04:00:44.738Z,0.00
2023-12-20T04:01:44.754Z,0.00
2023-12-20T04:02:44.655Z,0.00
2023-12-20T04:03:44.670Z,0.00
2023-12-20T04:04:44.662Z,0.00
2023-12-20T04:05:44.627Z,0.00
2023-12-20T04:06:44.647Z,0.00
2023-12-20T04:07:44.929Z,0.00
2023-12-20T04:08:44.592Z,0.00
2023-12-20T04:09:44.595Z,0.00
2023-12-20T04:10:44.527Z,0.00
2023-12-20T04:11:44.553Z,0.00
2023-12-20T04:12:44.586Z,0.00
2023-12-20T04:13:44.511Z,0.00
2023-12-20T04:14:44.519Z,0.00
2023-12-20T04:15:44.500Z,0.00
2023-12-20T04:16:47.533Z,0.00
2023-12-20T04:17:44.688Z,0.00
2023-12-20T04:18:44.607Z,0.00
2023-12-20T04:19:44.535Z,0.00
2023-12-20T04:20:44.429Z,0.00
2023-12-20T04:21:44.521Z,0.00
2023-12-20T04:22:44.395Z,0.00
2023-12-20T04:23:44.431Z,0.00
2023-12-20T04:24:44.465Z,0.00
2023-12-20T04:25:44.389Z,0.00
2023-12-20T04:26:44.355Z,0.00
2023-12-20T04:27:44.673Z,0.00
2023-12-20T04:28:44.354Z,0.00
2023-12-20T04:29:44.388Z,0.00
2023-12-20T04:30:44.386Z,0.00
2023-12-20T04:31:44.331Z,0.00
2023-12-20T04:32:44.332Z,0.00
2023-12-20T04:33:44.339Z,0.00
2023-12-20T04:34:44.326Z,0.00
2023-12-20T04:35:44.271Z,0.00
2023-12-20T04:36:44.321Z,0.00
2023-12-20T04:37:44.609Z,0.00
2023-12-20T04:38:44.242Z,0.00
2023-12-20T04:39:44.284Z,0.00
2023-12-20T04:40:44.249Z,0.00
2023-12-20T04:41:44.207Z,0.00
2023-12-20T04:42:44.234Z,0.00
2023-12-20T04:43:44.248Z,0.00
2023-12-20T04:44:44.160Z,0.00
2023-12-20T04:45:44.212Z,0.00
2023-12-20T04:46:44.147Z,0.00
2023-12-20T04:47:44.522Z,0.00
2023-12-20T04:48:44.230Z,0.00
2023-12-20T04:49:44.150Z,0.00
2023-12-20T04:50:44.154Z,0.00
2023-12-20T04:51:44.201Z,0.00
2023-12-20T04:52:44.097Z,0.00
2023-12-20T04:53:44.135Z,0.00
2023-12-20T04:54:45.226Z,0.00
2023-12-20T04:55:44.057Z,0.00
2023-12-20T04:56:44.062Z,0.00
2023-12-20T04:57:44.473Z,0.00
2023-12-20T04:58:44.037Z,0.00
2023-12-20T04:59:44.076Z,0.00
2023-12-20T05:00:44.060Z,0.00
2023-12-20T05:01:44.073Z,0.00
2023-12-20T05:02:43.985Z,0.00
2023-12-20T05:03:43.990Z,0.00
2023-12-20T05:04:44.021Z,0.00
2023-12-20T05:05:43.997Z,0.00
2023-12-20T05:06:44.112Z,0.00
2023-12-20T05:07:44.313Z,0.00
2023-12-20T05:08:43.922Z,0.00
2023-12-20T05:09:43.975Z,0.00
2023-12-20T05:10:43.882Z,0.00
2023-12-20T05:11:43.909Z,0.00
2023-12-20T05:12:44.000Z,0.00
2023-12-20T05:13:48.068Z,0.00
2023-12-20T05:14:44.861Z,0.00
2023-12-20T05:15:43.889Z,0.00
2023-12-20T05:16:43.828Z,0.00
2023-12-20T05:17:44.089Z,0.00
2023-12-20T05:18:43.793Z,0.00
2023-12-20T05:19:43.796Z,0.00
2023-12-20T05:20:43.780Z,0.00
2023-12-20T05:21:43.822Z,0.00
2023-12-20T05:22:43.792Z,0.00
2023-12-20T05:23:43.743Z,0.00
2023-12-20T05:24:43.759Z,0.00
2023-12-20T05:25:43.774Z,0.00
2023-12-20T05:26:43.723Z,0.00
2023-12-20T05:27:44.078Z,0.00
2023-12-20T05:28:43.700Z,0.00
2023-12-20T05:29:43.674Z,0.00
2023-12-20T05:30:43.725Z,0.00
2023-12-20T05:31:43.755Z,0.00
2023-12-20T05:32:43.675Z,0.00
2023-12-20T05:33:43.841Z,0.00
2023-12-20T05:34:43.706Z,0.00
2023-12-20T05:35:43.687Z,0.00
2023-12-20T05:36:43.640Z,0.00
2023-12-20T05:37:43.909Z,0.00
2023-12-20T05:38:43.588Z,0.00
2023-12-20T05:39:43.613Z,0.00
2023-12-20T05:40:43.548Z,0.00
2023-12-20T05:41:43.573Z,0.00
2023-12-20T05:42:43.566Z,0.00
2023-12-20T05:43:43.565Z,0.00
2023-12-20T05:44:43.533Z,0.00
2023-12-20T05:45:43.704Z,0.00
2023-12-20T05:46:43.486Z,0.00
2023-12-20T05:47:43.788Z,0.00
2023-12-20T05:48:43.592Z,0.00
2023-12-20T05:49:43.584Z,0.00
2023-12-20T05:50:43.444Z,0.00
2023-12-20T05:51:43.496Z,0.00
2023-12-20T05:52:43.468Z,0.00
2023-12-20T05:53:43.427Z,0.00
2023-12-20T05:54:43.444Z,0.00
2023-12-20T05:55:43.412Z,0.00
2023-12-20T05:56:43.388Z,0.00
2023-12-20T05:57:43.605Z,0.00
2023-12-20T05:58:43.375Z,0.00
2023-12-20T05:59:43.386Z,0.00
2023-12-20T06:00:43.405Z,0.00
2023-12-20T06:01:43.403Z,0.00
2023-12-20T06:02:43.371Z,0.00
2023-12-20T06:03:43.348Z,0.00
2023-12-20T06:04:43.456Z,0.00
2023-12-20T06:05:43.291Z,0.00
2023-12-20T06:06:43.448Z,0.00
2023-12-20T06:07:43.573Z,0.00
2023-12-20T06:08:43.268Z,0.00
2023-12-20T06:09:43.307Z,0.00
2023-12-20T06:10:43.249Z,0.00
2023-12-20T06:11:43.225Z,0.00
2023-12-20T06:12:43.248Z,0.00
2023-12-20T06:13:43.214Z,0.00
2023-12-20T06:14:43.185Z,0.00
2023-12-20T06:15:43.224Z,0.00
2023-12-20T06:16:43.154Z,0.00
2023-12-20T06:17:43.452Z,0.00
2023-12-20T06:18:43.232Z,0.00
2023-12-20T06:19:43.239Z,0.00
2023-12-20T06:20:43.117Z,0.00
2023-12-20T06:21:45.141Z,0.00
2023-12-20T06:22:43.112Z,0.00
2023-12-20T06:23:43.282Z,0.00
2023-12-20T06:24:43.112Z,0.00
2023-12-20T06:25:43.119Z,0.00
2023-12-20T06:26:43.132Z,0.00
2023-12-20T06:27:43.203Z,0.00
2023-12-20T06:28:43.144Z,0.00
2023-12-20T06:29:43.023Z,0.00
2023-12-20T06:30:43.115Z,0.00
2023-12-20T06:31:43.152Z,0.00
2023-12-20T06:32:43.024Z,0.00
2023-12-20T06:33:43.015Z,0.00
2023-12-20T06:34:43.064Z,0.00
2023-12-20T06:35:42.968Z,0.00
2023-12-20T06:36:42.988Z,0.00
2023-12-20T06:37:43.229Z,0.00
2023-12-20T06:38:42.937Z,0.00
2023-12-20T06:39:42.995Z,0.00
2023-12-20T06:40:42.966Z,0.00
2023-12-20T06:41:42.925Z,0.00
2023-12-20T06:42:50.020Z,0.00
2023-12-20T06:43:49.756Z,0.00
2023-12-20T06:44:43.922Z,0.00
2023-12-20T06:45:42.942Z,0.00
2023-12-20T06:46:42.850Z,0.00
2023-12-20T06:47:42.950Z,0.00
2023-12-20T06:48:43.020Z,0.00
2023-12-20T06:49:42.979Z,0.00
2023-12-20T06:50:42.847Z,0.00
2023-12-20T06:51:42.828Z,0.00
2023-12-20T06:52:42.798Z,0.00
2023-12-20T06:53:42.797Z,0.00
2023-12-20T06:54:42.814Z,0.00
2023-12-20T06:55:42.743Z,0.00
2023-12-20T06:56:42.752Z,0.00
2023-12-20T06:57:42.890Z,0.00
2023-12-20T06:58:42.725Z,0.00
2023-12-20T06:59:42.726Z,0.00
2023-12-20T07:00:42.779Z,0.00
2023-12-20T07:01:42.707Z,0.00
2023-12-20T07:02:42.675Z,0.00
2023-12-20T07:03:42.750Z,0.00
2023-12-20T07:04:42.752Z,0.00
2023-12-20T07:05:42.664Z,0.00
2023-12-20T07:06:42.710Z,0.00
2023-12-20T07:07:42.794Z,0.00
2023-12-20T07:08:42.642Z,0.00
2023-12-20T07:09:42.616Z,0.00
2023-12-20T07:10:42.627Z,0.00
2023-12-20T07:11:42.585Z,0.00
2023-12-20T07:12:42.685Z,0.00
2023-12-20T07:13:42.561Z,0.00
2023-12-20T07:14:42.572Z,0.00
2023-12-20T07:15:42.638Z,0.00
2023-12-20T07:16:42.517Z,0.00
2023-12-20T07:17:42.612Z,0.00
2023-12-20T07:18:42.588Z,0.00
2023-12-20T07:19:42.553Z,0.00
2023-12-20T07:20:42.504Z,0.00
2023-12-20T07:21:42.496Z,0.00
2023-12-20T07:22:42.852Z,0.00
2023-12-20T07:23:42.479Z,0.00
2023-12-20T07:24:42.500Z,0.00
2023-12-20T07:25:42.442Z,0.00
2023-12-20T07:26:42.408Z,0.00
2023-12-20T07:27:44.712Z,0.00
2023-12-20T07:28:42.439Z,0.00
2023-12-20T07:29:42.404Z,0.00
2023-12-20T07:30:42.422Z,0.00
2023-12-20T07:31:42.400Z,0.00
2023-12-20T07:32:42.369Z,0.00
2023-12-20T07:33:42.459Z,0.00
2023-12-20T07:34:42.482Z,0.00
2023-12-20T07:35:42.423Z,0.00
2023-12-20T07:36:42.327Z,0.00
2023-12-20T07:37:42.450Z,0.00
2023-12-20T07:38:42.300Z,4.00
2023-12-20T07:39:42.320Z,4.00
2023-12-20T07:40:42.269Z,0.00
2023-12-20T07:41:43.896Z,4.00
2023-12-20T07:42:42.260Z,0.00
2023-12-20T07:43:42.332Z,4.00
2023-12-20T07:44:42.240Z,4.00
2023-12-20T07:45:42.252Z,4.00
2023-12-20T07:46:42.263Z,0.00
2023-12-20T07:47:42.249Z,0.00
2023-12-20T07:48:44.620Z,4.00
2023-12-20T07:49:42.232Z,4.00
2023-12-20T07:50:42.192Z,4.00
2023-12-20T07:51:42.248Z,4.00
2023-12-20T07:52:42.122Z,4.00
2023-12-20T07:53:42.153Z,4.00
2023-12-20T07:54:42.250Z,4.00
2023-12-20T07:55:42.081Z,4.00
2023-12-20T07:56:42.157Z,4.00
2023-12-20T07:57:42.201Z,4.00
2023-12-20T07:58:50.751Z,4.00
2023-12-20T07:59:43.098Z,4.00
2023-12-20T08:00:42.239Z,4.00
2023-12-20T08:01:42.103Z,4.00
2023-12-20T08:02:42.057Z,4.00
2023-12-20T08:03:42.177Z,4.00
2023-12-20T08:04:42.206Z,4.00
2023-12-20T08:05:42.145Z,4.00
2023-12-20T08:06:42.091Z,4.00
2023-12-20T08:07:41.973Z,0.00
2023-12-20T08:08:42.975Z,0.00
2023-12-20T08:09:41.957Z,4.00
2023-12-20T08:10:41.944Z,4.00
2023-12-20T08:11:41.931Z,0.00
2023-12-20T08:12:41.966Z,0.00
2023-12-20T08:13:41.948Z,0.00
2023-12-20T08:14:41.908Z,0.00
2023-12-20T08:15:41.927Z,4.00
2023-12-20T08:16:41.926Z,4.00
2023-12-20T08:17:41.922Z,4.00
2023-12-20T08:18:41.940Z,4.00
2023-12-20T08:19:42.047Z,4.00
2023-12-20T08:20:42.094Z,4.00
2023-12-20T08:21:41.883Z,0.00
2023-12-20T08:22:41.871Z,0.00
2023-12-20T08:23:41.785Z,0.00
2023-12-20T08:24:41.894Z,0.00
2023-12-20T08:25:41.781Z,0.00
2023-12-20T08:26:41.808Z,0.00
2023-12-20T08:27:41.758Z,0.00
2023-12-20T08:28:41.751Z,4.00
2023-12-20T08:29:41.708Z,0.00
2023-12-20T08:30:41.895Z,4.00
2023-12-20T08:31:41.761Z,4.00
2023-12-20T08:32:41.717Z,4.00
2023-12-20T08:33:41.692Z,8.00
2023-12-20T08:34:41.824Z,4.00
2023-12-20T08:35:41.676Z,4.00
2023-12-20T08:36:41.758Z,4.00
2023-12-20T08:37:41.702Z,4.00
2023-12-20T08:38:41.718Z,4.00
2023-12-20T08:39:44.998Z,4.00
2023-12-20T08:40:41.639Z,4.00
2023-12-20T08:41:41.642Z,4.00
2023-12-20T08:42:41.608Z,4.00
2023-12-20T08:43:41.558Z,4.00
2023-12-20T08:44:41.617Z,4.00
2023-12-20T08:45:41.579Z,4.00
2023-12-20T08:46:41.621Z,4.00
2023-12-20T08:47:41.574Z,4.00
2023-12-20T08:48:41.787Z,4.00
2023-12-20T08:49:41.695Z,4.00
2023-12-20T08:50:41.690Z,4.00
2023-12-20T08:51:41.498Z,4.00
2023-12-20T08:52:41.465Z,4.00
2023-12-20T08:53:41.478Z,8.00
2023-12-20T08:54:42.687Z,8.00
2023-12-20T08:55:41.455Z,8.00
2023-12-20T08:56:41.461Z,12.00
2023-12-20T08:57:41.465Z,16.00
2023-12-20T08:58:41.430Z,20.00
2023-12-20T08:59:41.422Z,20.00
2023-12-20T09:00:41.433Z,20.00
2023-12-20T09:01:41.466Z,12.00
2023-12-20T09:02:41.377Z,12.00
2023-12-20T09:03:41.418Z,8.00
2023-12-20T09:04:41.476Z,12.00
2023-12-20T09:05:41.364Z,16.00
2023-12-20T09:06:41.403Z,12.00
2023-12-20T09:07:41.324Z,8.00
2023-12-20T09:08:41.387Z,8.00
2023-12-20T09:09:41.317Z,8.00
2023-12-20T09:10:41.303Z,8.00
2023-12-20T09:11:41.288Z,8.00
2023-12-20T09:12:41.257Z,8.00
2023-12-20T09:13:41.251Z,8.00
2023-12-20T09:14:41.314Z,4.00
2023-12-20T09:15:41.245Z,4.00
2023-12-20T09:16:41.232Z,8.00
2023-12-20T09:17:41.313Z,12.00
2023-12-20T09:18:41.198Z,12.00
2023-12-20T09:19:41.308Z,12.00
2023-12-20T09:20:43.268Z,12.00
2023-12-20T09:21:41.169Z,12.00
2023-12-20T09:22:41.176Z,8.00
2023-12-20T09:23:41.162Z,12.00
2023-12-20T09:24:41.170Z,8.00
2023-12-20T09:25:41.165Z,8.00
2023-12-20T09:26:41.124Z,4.00
2023-12-20T09:27:41.099Z,4.00
2023-12-20T09:28:41.295Z,8.00
2023-12-20T09:29:41.108Z,8.00
2023-12-20T09:30:41.521Z,8.00
2023-12-20T09:31:41.160Z,8.00
2023-12-20T09:32:41.054Z,8.00
2023-12-20T09:33:41.208Z,8.00
2023-12-20T09:34:41.176Z,8.00
2023-12-20T09:35:41.191Z,8.00
2023-12-20T09:36:41.005Z,8.00
2023-12-20T09:37:40.999Z,8.00
2023-12-20T09:38:40.981Z,4.00
2023-12-20T09:39:40.978Z,8.00
2023-12-20T09:40:41.006Z,8.00
2023-12-20T09:41:41.019Z,4.00
2023-12-20T09:42:40.967Z,4.00
2023-12-20T09:43:40.953Z,4.00
2023-12-20T09:44:40.918Z,4.00
2023-12-20T09:45:40.962Z,8.00
2023-12-20T09:46:40.954Z,4.00
2023-12-20T09:47:40.906Z,4.00
2023-12-20T09:48:40.940Z,4.00
2023-12-20T09:49:40.940Z,8.00
2023-12-20T09:50:40.853Z,4.00
2023-12-20T09:51:40.903Z,4.00
2023-12-20T09:52:40.844Z,8.00
2023-12-20T09:53:40.829Z,8.00
2023-12-20T09:54:40.836Z,8.00
2023-12-20T09:55:40.801Z,8.00
2023-12-20T09:56:40.840Z,12.00
2023-12-20T09:57:40.790Z,12.00
2023-12-20T09:58:40.947Z,8.00
2023-12-20T09:59:40.746Z,8.00
2023-12-20T10:00:40.780Z,8.00
2023-12-20T10:01:40.845Z,12.00
2023-12-20T10:02:40.749Z,8.00
2023-12-20T10:03:40.680Z,8.00
2023-12-20T10:04:40.837Z,8.00
2023-12-20T10:05:40.766Z,8.00
2023-12-20T10:06:40.717Z,4.00
2023-12-20T10:07:40.724Z,4.00
2023-12-20T10:08:40.739Z,8.00
2023-12-20T10:09:40.624Z,8.00
2023-12-20T10:10:45.799Z,8.00
2023-12-20T10:11:41.625Z,8.00
2023-12-20T10:12:40.601Z,8.00
2023-12-20T10:13:40.758Z,8.00
2023-12-20T10:14:40.585Z,8.00
2023-12-20T10:15:40.601Z,8.00
2023-12-20T10:16:40.625Z,8.00
2023-12-20T10:17:40.606Z,8.00
2023-12-20T10:18:40.791Z,8.00
2023-12-20T10:19:40.613Z,8.00
2023-12-20T10:20:40.587Z,8.00
2023-12-20T10:21:40.510Z,8.00
2023-12-20T10:22:40.557Z,8.00
2023-12-20T10:23:40.497Z,8.00
2023-12-20T10:24:40.488Z,8.00
2023-12-20T10:25:40.486Z,8.00
2023-12-20T10:26:40.480Z,8.00
2023-12-20T10:27:40.543Z,4.00
2023-12-20T10:28:40.724Z,8.00
2023-12-20T10:29:40.463Z,4.00
2023-12-20T10:30:40.506Z,4.00
2023-12-20T10:31:40.700Z,8.00
2023-12-20T10:32:40.470Z,4.00
2023-12-20T10:33:40.395Z,4.00
2023-12-20T10:34:40.629Z,4.00
2023-12-20T10:35:43.647Z,4.00
2023-12-20T10:36:41.355Z,4.00
2023-12-20T10:37:40.350Z,4.00
2023-12-20T10:38:40.360Z,4.00
2023-12-20T10:39:40.387Z,4.00
2023-12-20T10:40:40.483Z,4.00
2023-12-20T10:41:40.306Z,4.00
2023-12-20T10:42:40.295Z,4.00
2023-12-20T10:43:40.399Z,4.00
2023-12-20T10:44:40.367Z,4.00
2023-12-20T10:45:40.295Z,4.00
2023-12-20T10:46:40.280Z,4.00
2023-12-20T10:47:40.872Z,8.00
2023-12-20T10:48:40.294Z,8.00
2023-12-20T10:49:40.312Z,8.00
2023-12-20T10:50:40.220Z,4.00
2023-12-20T10:51:40.218Z,8.00
2023-12-20T10:52:40.244Z,4.00
2023-12-20T10:53:40.179Z,8.00
2023-12-20T10:54:40.188Z,12.00
2023-12-20T10:55:40.145Z,16.00
2023-12-20T10:56:40.124Z,24.00
2023-12-20T10:57:40.140Z,20.00
2023-12-20T10:58:40.186Z,20.00
2023-12-20T10:59:40.103Z,68.00
2023-12-20T11:00:40.200Z,108.00
2023-12-20T11:01:40.179Z,96.00
2023-12-20T11:02:40.059Z,32.00
2023-12-20T11:03:40.136Z,28.00
2023-12-20T11:04:40.202Z,20.00
2023-12-20T11:05:40.096Z,12.00
2023-12-20T11:06:40.093Z,12.00
2023-12-20T11:07:40.222Z,8.00
2023-12-20T11:08:40.016Z,8.00
2023-12-20T11:09:40.034Z,8.00
2023-12-20T11:10:39.994Z,8.00
2023-12-20T11:11:40.080Z,4.00
2023-12-20T11:12:40.051Z,4.00
2023-12-20T11:13:39.958Z,4.00
2023-12-20T11:14:39.936Z,8.00
2023-12-20T11:15:39.966Z,4.00
2023-12-20T11:16:48.174Z,4.00
2023-12-20T11:17:40.946Z,4.00
2023-12-20T11:18:40.062Z,4.00
2023-12-20T11:19:39.988Z,4.00
2023-12-20T11:20:39.931Z,4.00
2023-12-20T11:21:39.863Z,4.00
2023-12-20T11:22:41.797Z,4.00
2023-12-20T11:23:39.842Z,4.00
2023-12-20T11:24:39.864Z,4.00
2023-12-20T11:25:39.845Z,4.00
2023-12-20T11:26:39.818Z,4.00
2023-12-20T11:27:39.785Z,4.00
2023-12-20T11:28:39.922Z,8.00
2023-12-20T11:29:39.784Z,8.00
2023-12-20T11:30:39.794Z,8.00
2023-12-20T11:31:39.788Z,8.00
2023-12-20T11:32:39.801Z,8.00
2023-12-20T11:33:39.758Z,8.00
2023-12-20T11:34:39.816Z,8.00
2023-12-20T11:35:39.759Z,8.00
2023-12-20T11:36:39.745Z,4.00
2023-12-20T11:37:39.794Z,4.00
2023-12-20T11:38:39.720Z,4.00
2023-12-20T11:39:39.705Z,4.00
2023-12-20T11:40:39.693Z,4.00
2023-12-20T11:41:39.638Z,4.00
2023-12-20T11:42:39.646Z,4.00
2023-12-20T11:43:39.652Z,4.00
2023-12-20T11:44:39.625Z,4.00
2023-12-20T11:45:39.625Z,4.00
2023-12-20T11:46:39.658Z,4.00
2023-12-20T11:47:39.624Z,0.00
2023-12-20T11:48:39.669Z,0.00
2023-12-20T11:49:39.877Z,4.00
2023-12-20T11:50:39.854Z,4.00
2023-12-20T11:51:39.613Z,4.00
2023-12-20T11:52:39.557Z,4.00
2023-12-20T11:53:39.558Z,4.00
2023-12-20T11:54:39.547Z,4.00
2023-12-20T11:55:39.536Z,4.00
2023-12-20T11:56:39.492Z,4.00
2023-12-20T11:57:39.508Z,4.00
2023-12-20T11:58:39.503Z,4.00
2023-12-20T11:59:39.486Z,4.00
2023-12-20T12:00:39.447Z,0.00
2023-12-20T12:01:39.602Z,4.00
2023-12-20T12:02:39.410Z,4.00
2023-12-20T12:03:39.420Z,8.00
2023-12-20T12:04:39.582Z,8.00
2023-12-20T12:05:39.440Z,8.00
2023-12-20T12:06:39.452Z,8.00
2023-12-20T12:07:39.512Z,8.00
2023-12-20T12:08:39.403Z,8.00
2023-12-20T12:09:39.372Z,8.00
2023-12-20T12:10:39.363Z,8.00
2023-12-20T12:11:39.317Z,8.00
2023-12-20T12:12:39.314Z,8.00
2023-12-20T12:13:39.347Z,8.00
2023-12-20T12:14:39.308Z,8.00
2023-12-20T12:15:39.360Z,8.00
2023-12-20T12:16:39.313Z,12.00
2023-12-20T12:17:39.315Z,8.00
2023-12-20T12:18:39.242Z,8.00
2023-12-20T12:19:39.382Z,8.00
2023-12-20T12:20:39.350Z,8.00
2023-12-20T12:21:39.226Z,8.00
2023-12-20T12:22:39.380Z,4.00
2023-12-20T12:23:39.177Z,8.00
2023-12-20T12:24:39.190Z,8.00
2023-12-20T12:25:42.582Z,8.00
2023-12-20T12:26:39.157Z,4.00
2023-12-20T12:27:39.165Z,8.00
2023-12-20T12:28:39.181Z,8.00
2023-12-20T12:29:39.131Z,4.00
2023-12-20T12:30:43.398Z,8.00
2023-12-20T12:31:40.193Z,8.00
2023-12-20T12:32:39.293Z,8.00
2023-12-20T12:33:39.193Z,8.00
2023-12-20T12:34:39.163Z,8.00
2023-12-20T12:35:39.070Z,4.00
2023-12-20T12:36:39.048Z,8.00
2023-12-20T12:37:39.073Z,4.00
2023-12-20T12:38:39.042Z,4.00
2023-12-20T12:39:39.099Z,8.00
2023-12-20T12:40:39.032Z,8.00
2023-12-20T12:41:39.019Z,4.00
2023-12-20T12:42:38.992Z,0.00
2023-12-20T12:43:39.025Z,0.00
2023-12-20T12:44:38.994Z,4.00
2023-12-20T12:45:38.944Z,4.00
2023-12-20T12:46:39.009Z,4.00
2023-12-20T12:47:38.988Z,4.00
2023-12-20T12:48:39.228Z,0.00
2023-12-20T12:49:39.070Z,0.00
2023-12-20T12:50:38.880Z,4.00
2023-12-20T12:51:38.916Z,4.00
2023-12-20T12:52:38.858Z,4.00
2023-12-20T12:53:38.898Z,4.00
2023-12-20T12:54:38.960Z,4.00
2023-12-20T12:55:38.882Z,4.00
2023-12-20T12:56:38.889Z,4.00
2023-12-20T12:57:38.844Z,4.00
2023-12-20T12:58:38.903Z,4.00
2023-12-20T12:59:40.554Z,4.00
2023-12-20T13:00:38.858Z,4.00
2023-12-20T13:01:38.882Z,8.00
2023-12-20T13:02:38.848Z,8.00
2023-12-20T13:03:38.819Z,4.00
2023-12-20T13:04:38.867Z,4.00
2023-12-20T13:05:40.689Z,4.00
2023-12-20T13:06:38.803Z,4.00
2023-12-20T13:07:39.086Z,4.00
2023-12-20T13:08:38.703Z,4.00
2023-12-20T13:09:38.701Z,4.00
2023-12-20T13:10:38.795Z,4.00
2023-12-20T13:11:38.709Z,0.00
2023-12-20T13:12:38.714Z,4.00
2023-12-20T13:13:38.713Z,4.00
2023-12-20T13:14:39.342Z,4.00
2023-12-20T13:15:38.629Z,4.00
2023-12-20T13:16:38.790Z,4.00
2023-12-20T13:17:38.840Z,4.00